Zara — 5VEC6 — position and weather

sailwx.info

Track history (hours):
 
Tides and Currents Weather Stations Pressure Air Temp Water Temp Dewpoint Dewpoint Depression Visibility Wind Speed Wind Dir Waves Ship Positions

Zara

Last reported at 2017-Dec-01 18:09 UTC. Time now 2017-Dec-11 09:40 UTC.
Position N 46°18' E 030°55'.
Warning: this ship's position is 9 days out of date.

Length 120 m; draft 7.3 m.

Type: Cargo ship. MMSI: 671741000.

Date/timePositionNaut miles runAvg speedWind from/ knotsBaromVisibWave heightAir tempDewpointWater temp
2017-Dec-01 18:09N 46°18' E 030°55'4 7.8
2017-Dec-01 17:41N 46°22' E 030°56'1 7.5
2017-Dec-01 17:30N 46°23' E 030°56'4 7.6
2017-Dec-01 16:56N 46°27' E 030°55'3 7.9
2017-Dec-01 16:30N 46°31' E 030°55'25 7.4
2017-Dec-01 13:07N 46°35' E 031°31'1 7.5
2017-Dec-01 13:00N 46°35' E 031°33'4 7.4
2017-Dec-01 12:30N 46°36' E 031°38'4 8.6
2017-Dec-01 12:00N 46°36' E 031°44'4 8.2
2017-Dec-01 11:31N 46°35' E 031°50'4 8.5
2017-Dec-01 11:01N 46°34' E 031°56'4 8.3
2017-Dec-01 10:30N 46°33' E 032°01'4 8.0
2017-Dec-01 10:00N 46°32' E 032°07'4 8.2
2017-Dec-01 09:29N 46°33' E 032°13'4 7.4
2017-Dec-01 08:58N 46°33' E 032°19'  
Track history (hours):
 
Tides and Currents Weather Stations Pressure Air Temp Water Temp Dewpoint Dewpoint Depression Visibility Wind Speed Wind Dir Waves Ship Positions

Zara

Last reported at 2017-Dec-01 18:09 UTC. Time now 2017-Dec-11 09:40 UTC.
Position N 46°18' E 030°55'.
Warning: this ship's position is 9 days out of date.

Length 120 m; draft 7.3 m.

Type: Cargo ship. MMSI: 671741000.

Date/timePositionNaut miles runAvg speedWind from/ knotsBaromVisibWave heightAir tempDewpointWater temp
2017-Dec-01 18:09N 46°18' E 030°55'4 7.8
2017-Dec-01 17:41N 46°22' E 030°56'1 7.5
2017-Dec-01 17:30N 46°23' E 030°56'4 7.6
2017-Dec-01 16:56N 46°27' E 030°55'3 7.9
2017-Dec-01 16:30N 46°31' E 030°55'25 7.4
2017-Dec-01 13:07N 46°35' E 031°31'1 7.5
2017-Dec-01 13:00N 46°35' E 031°33'4 7.4
2017-Dec-01 12:30N 46°36' E 031°38'4 8.6
2017-Dec-01 12:00N 46°36' E 031°44'4 8.2
2017-Dec-01 11:31N 46°35' E 031°50'4 8.5
2017-Dec-01 11:01N 46°34' E 031°56'4 8.3
2017-Dec-01 10:30N 46°33' E 032°01'4 8.0
2017-Dec-01 10:00N 46°32' E 032°07'4 8.2
2017-Dec-01 09:29N 46°33' E 032°13'4 7.4
2017-Dec-01 08:58N 46°33' E 032°19'  

Dump ship's entire track history